Time;durP1;ratioP1;P1;durP2;ratioP2;P2;SDS_P1;SDS_P2;PMS_P1;PMS_P2;Temp;Humidity;BMP_temperature;BMP_pressure;BME280_temperature;BME280_humidity;BME280_pressure;Samples;Min_cycle;Max_cycle;Signal;HPM_P1;HPM_P2
2023/03/26 00:00:10;;;;;;;;;;;10.90;99.90;;;;;;5140094;27;19913;-62
2023/03/26 00:02:38;;;;;;;;;;;10.90;99.90;;;;;;5140398;27;20045;-62
2023/03/26 00:05:05;;;;;;;;;;;10.80;99.90;;;;;;5139883;27;19907;-62
2023/03/26 00:07:30;;;;;;;;;;;10.90;99.90;;;;;;5140088;27;20002;-62
2023/03/26 00:09:57;;;;;;;;;;;10.80;99.90;;;;;;5140209;27;19991;-62
2023/03/26 00:12:23;;;;;;;;;;;10.90;99.90;;;;;;5139755;27;19930;-62
2023/03/26 00:14:50;;;;;;;;;;;10.80;99.90;;;;;;5139963;27;19914;-62
2023/03/26 00:17:16;;;;;;;;;;;10.70;99.90;;;;;;5139564;27;19924;-62
2023/03/26 00:19:42;;;;;;;;;;;10.80;99.90;;;;;;5139925;27;19914;-62
2023/03/26 00:22:10;;;;;;;;;;;10.70;99.90;;;;;;5139663;27;19961;-62
2023/03/26 00:24:36;;;;;;;;;;;10.80;99.90;;;;;;5139788;27;19913;-62
2023/03/26 00:27:02;;;;;;;;;;;10.80;99.90;;;;;;5139388;27;19926;-61
2023/03/26 00:29:27;;;;;;;;;;;10.70;99.90;;;;;;5139533;27;19907;-62
2023/03/26 00:31:53;;;;;;;;;;;10.70;99.90;;;;;;5139563;27;19907;-62
2023/03/26 00:34:19;;;;;;;;;;;10.80;99.90;;;;;;5139821;27;19908;-62
2023/03/26 00:36:45;;;;;;;;;;;10.70;99.90;;;;;;5139397;27;19911;-62
2023/03/26 00:39:11;;;;;;;;;;;10.80;99.90;;;;;;5139518;27;19907;-62
2023/03/26 00:41:41;;;;;;;;;;;10.80;99.90;;;;;;5139071;27;19915;-61
2023/03/26 00:44:07;;;;;;;;;;;10.80;99.90;;;;;;5139075;27;20010;-62
2023/03/26 00:46:33;;;;;;;;;;;10.90;99.90;;;;;;5139582;27;19954;-62
2023/03/26 00:48:59;;;;;;;;;;;10.80;99.90;;;;;;5139146;27;19907;-62
2023/03/26 00:51:25;;;;;;;;;;;10.80;99.90;;;;;;5139515;27;20243;-62
2023/03/26 00:53:51;;;;;;;;;;;10.80;99.90;;;;;;5139370;27;20380;-62
2023/03/26 00:56:17;;;;;;;;;;;10.90;99.90;;;;;;5139251;27;19912;-62
2023/03/26 00:58:43;;;;;;;;;;;10.90;99.90;;;;;;5139275;27;19907;-62
2023/03/26 01:01:13;;;;;;;;;;;10.80;99.90;;;;;;5139305;27;19915;-62
2023/03/26 01:03:40;;;;;;;;;;;10.90;99.90;;;;;;5139109;27;19998;-62
2023/03/26 01:06:11;;;;;;;;;;;10.90;99.90;;;;;;5139245;28;19907;-62
2023/03/26 01:08:39;;;;;;;;;;;10.90;99.90;;;;;;5139179;28;19908;-62
2023/03/26 01:11:12;;;;;;;;;;;10.90;99.90;;;;;;5138892;28;20263;-62
2023/03/26 01:13:40;;;;;;;;;;;11.00;99.90;;;;;;5138721;28;19908;-62
2023/03/26 01:16:08;;;;;;;;;;;10.90;99.90;;;;;;5138868;28;19911;-62
2023/03/26 01:18:39;;;;;;;;;;;10.90;99.90;;;;;;5138942;28;20006;-62
2023/03/26 01:21:08;;;;;;;;;;;10.90;99.90;;;;;;5138901;28;19915;-62
2023/03/26 01:23:43;;;;;;;;;;;10.90;99.90;;;;;;5138897;28;19914;-62
2023/03/26 01:26:23;;;;;;;;;;;10.90;99.90;;;;;;5138882;28;19920;-62
2023/03/26 01:28:53;;;;;;;;;;;11.00;99.90;;;;;;5138825;28;19907;-62
2023/03/26 01:31:28;;;;;;;;;;;10.90;99.90;;;;;;5138960;28;19908;-62
2023/03/26 01:34:01;;;;;;;;;;;10.90;99.90;;;;;;5138456;28;19968;-62
2023/03/26 01:36:33;;;;;;;;;;;11.00;99.90;;;;;;5138844;28;19911;-62
2023/03/26 01:39:17;;;;;;;;;;;10.90;99.90;;;;;;5138903;28;19936;-62
2023/03/26 01:42:09;;;;;;;;;;;11.00;99.90;;;;;;5138443;28;19962;-62
2023/03/26 01:44:40;;;;;;;;;;;10.90;99.90;;;;;;5134562;28;19908;-62
2023/03/26 01:47:06;;;;;;;;;;;11.00;99.90;;;;;;5138614;28;19962;-62
2023/03/26 01:49:32;;;;;;;;;;;10.90;99.90;;;;;;5138567;28;19908;-62
2023/03/26 01:51:58;;;;;;;;;;;11.00;99.90;;;;;;5138923;28;19907;-62
2023/03/26 01:54:25;;;;;;;;;;;11.10;99.90;;;;;;5138735;28;20381;-62
2023/03/26 01:56:57;;;;;;;;;;;11.00;99.90;;;;;;5138795;28;19912;-62
2023/03/26 01:59:32;;;;;;;;;;;11.00;99.90;;;;;;5138674;28;19907;-62
2023/03/26 02:02:00;;;;;;;;;;;11.10;99.90;;;;;;5138730;28;19907;-62
2023/03/26 02:04:26;;;;;;;;;;;11.00;99.90;;;;;;5138373;28;20378;-62
2023/03/26 02:07:00;;;;;;;;;;;11.00;99.90;;;;;;5138681;28;19976;-62
2023/03/26 02:09:29;;;;;;;;;;;10.80;99.90;;;;;;5138415;28;19911;-62
2023/03/26 02:11:55;;;;;;;;;;;10.70;99.90;;;;;;5140902;27;19914;-62
2023/03/26 02:14:20;;;;;;;;;;;10.70;99.90;;;;;;5142617;27;19907;-62
2023/03/26 02:16:46;;;;;;;;;;;10.70;99.90;;;;;;5142069;27;20342;-62
2023/03/26 02:19:20;;;;;;;;;;;10.60;99.90;;;;;;5142255;27;19908;-62
2023/03/26 02:21:48;;;;;;;;;;;10.60;99.90;;;;;;5141991;27;19930;-62
2023/03/26 02:24:13;;;;;;;;;;;10.40;99.90;;;;;;5142044;27;19907;-62
2023/03/26 02:26:39;;;;;;;;;;;10.40;99.90;;;;;;5141921;27;19926;-62
2023/03/26 02:29:05;;;;;;;;;;;10.30;99.90;;;;;;5141789;27;19914;-62
2023/03/26 02:31:30;;;;;;;;;;;10.30;99.90;;;;;;5141884;27;19960;-62
2023/03/26 02:33:56;;;;;;;;;;;10.20;99.90;;;;;;5142280;27;19943;-62
2023/03/26 02:36:26;;;;;;;;;;;10.20;99.90;;;;;;5142024;27;19912;-62
2023/03/26 02:38:53;;;;;;;;;;;10.20;99.90;;;;;;5141630;27;20367;-62
2023/03/26 02:41:19;;;;;;;;;;;10.20;99.90;;;;;;5141693;27;19914;-62
2023/03/26 02:43:44;;;;;;;;;;;10.20;99.90;;;;;;5141638;27;19914;-62
2023/03/26 02:46:10;;;;;;;;;;;10.20;99.90;;;;;;5142033;27;20265;-62
2023/03/26 02:48:36;;;;;;;;;;;10.00;99.90;;;;;;5141452;27;19911;-62
2023/03/26 02:51:02;;;;;;;;;;;10.10;99.90;;;;;;5141962;27;19907;-62
2023/03/26 02:53:30;;;;;;;;;;;10.10;99.90;;;;;;5141392;27;19913;-62
2023/03/26 02:55:56;;;;;;;;;;;10.10;99.90;;;;;;5141476;27;19918;-62
2023/03/26 02:58:24;;;;;;;;;;;10.10;99.90;;;;;;5141513;27;19931;-62
2023/03/26 03:00:53;;;;;;;;;;;10.00;99.90;;;;;;5141850;27;19914;-62
2023/03/26 03:03:23;;;;;;;;;;;10.00;99.90;;;;;;5141233;27;19914;-62
2023/03/26 03:05:50;;;;;;;;;;;10.00;99.90;;;;;;5141405;27;19908;-62
2023/03/26 03:08:20;;;;;;;;;;;10.00;99.90;;;;;;5141139;27;19911;-62
2023/03/26 03:11:04;;;;;;;;;;;10.00;99.90;;;;;;5141277;27;19907;-62
2023/03/26 03:13:30;;;;;;;;;;;9.90;99.90;;;;;;5141090;27;20388;-62
2023/03/26 03:15:55;;;;;;;;;;;10.10;99.90;;;;;;5141263;27;19915;-62
2023/03/26 03:18:21;;;;;;;;;;;10.00;99.90;;;;;;5141763;27;19907;-62
2023/03/26 03:20:46;;;;;;;;;;;10.00;99.90;;;;;;5140883;27;19914;-62
2023/03/26 03:23:12;;;;;;;;;;;10.10;99.90;;;;;;5140012;27;19908;-62
2023/03/26 03:25:39;;;;;;;;;;;10.00;99.90;;;;;;5140814;27;20388;-62
2023/03/26 03:28:06;;;;;;;;;;;10.10;99.90;;;;;;5140686;27;20282;-62
2023/03/26 03:30:31;;;;;;;;;;;10.10;99.90;;;;;;5140693;27;19957;-62
2023/03/26 03:32:57;;;;;;;;;;;10.20;99.90;;;;;;5140611;27;19908;-62
2023/03/26 03:35:28;;;;;;;;;;;10.20;99.90;;;;;;5140513;27;20386;-62
2023/03/26 03:37:58;;;;;;;;;;;10.30;99.90;;;;;;5140515;27;19912;-62
2023/03/26 03:40:23;;;;;;;;;;;10.30;99.90;;;;;;5140722;27;19929;-62
2023/03/26 03:42:50;;;;;;;;;;;10.30;99.90;;;;;;5140474;27;20363;-62
2023/03/26 03:45:15;;;;;;;;;;;10.30;99.90;;;;;;5140331;27;20255;-62
2023/03/26 03:47:41;;;;;;;;;;;10.30;99.90;;;;;;5140509;27;20025;-62
2023/03/26 03:50:07;;;;;;;;;;;10.40;99.90;;;;;;5140474;27;20266;-62
2023/03/26 03:52:33;;;;;;;;;;;10.40;99.90;;;;;;5140305;27;19959;-62
2023/03/26 03:55:01;;;;;;;;;;;10.40;99.90;;;;;;5140607;27;19911;-62
2023/03/26 03:57:27;;;;;;;;;;;10.40;99.90;;;;;;5140249;27;19950;-62
2023/03/26 03:59:53;;;;;;;;;;;10.40;99.90;;;;;;5140313;27;19919;-62
2023/03/26 04:02:33;;;;;;;;;;;10.40;99.90;;;;;;5140537;27;19907;-62
2023/03/26 04:04:59;;;;;;;;;;;10.40;99.90;;;;;;5139945;27;19908;-62
2023/03/26 04:07:25;;;;;;;;;;;10.40;99.90;;;;;;5139980;27;19909;-62
2023/03/26 04:09:51;;;;;;;;;;;10.40;99.90;;;;;;5140160;27;19935;-62
2023/03/26 04:12:16;;;;;;;;;;;10.40;99.90;;;;;;5140251;27;20361;-62
2023/03/26 04:14:42;;;;;;;;;;;10.40;99.90;;;;;;5140088;27;19908;-62
2023/03/26 04:17:07;;;;;;;;;;;10.40;99.90;;;;;;5139683;27;19912;-62
2023/03/26 04:19:33;;;;;;;;;;;10.40;99.90;;;;;;5139787;27;19912;-62
2023/03/26 04:22:01;;;;;;;;;;;10.40;99.90;;;;;;5139809;27;19916;-62
2023/03/26 04:24:37;;;;;;;;;;;10.40;99.90;;;;;;5140205;27;19912;-62
2023/03/26 04:27:05;;;;;;;;;;;10.40;99.90;;;;;;5139390;27;20004;-62
2023/03/26 04:29:33;;;;;;;;;;;10.40;99.90;;;;;;5139768;27;19915;-62
2023/03/26 04:32:05;;;;;;;;;;;10.40;99.90;;;;;;5139613;27;19907;-62
2023/03/26 04:34:31;;;;;;;;;;;10.40;99.90;;;;;;5139025;27;20285;-62
2023/03/26 04:36:57;;;;;;;;;;;10.40;99.90;;;;;;5139644;27;19922;-62
2023/03/26 04:39:28;;;;;;;;;;;10.30;99.90;;;;;;5139358;27;20270;-62
2023/03/26 04:41:54;;;;;;;;;;;10.40;99.90;;;;;;5139376;27;19919;-62
2023/03/26 04:44:21;;;;;;;;;;;10.40;99.90;;;;;;5139347;27;19972;-62
2023/03/26 04:46:51;;;;;;;;;;;10.40;99.90;;;;;;5139474;27;19918;-62
2023/03/26 04:49:17;;;;;;;;;;;10.40;99.90;;;;;;5139400;27;19958;-62
2023/03/26 04:51:45;;;;;;;;;;;10.40;99.90;;;;;;5139423;27;19907;-62
2023/03/26 04:54:12;;;;;;;;;;;10.40;99.90;;;;;;5139611;27;19915;-62
2023/03/26 04:56:42;;;;;;;;;;;10.40;99.90;;;;;;5139400;27;19912;-62
2023/03/26 04:59:12;;;;;;;;;;;10.40;99.90;;;;;;5139336;27;19913;-61
2023/03/26 05:01:39;;;;;;;;;;;10.40;99.90;;;;;;5139148;27;19936;-62
2023/03/26 05:04:04;;;;;;;;;;;10.50;99.90;;;;;;5138964;27;19908;-62
2023/03/26 05:06:33;;;;;;;;;;;10.50;99.90;;;;;;5139403;27;19994;-62
2023/03/26 05:08:59;;;;;;;;;;;10.50;99.90;;;;;;5138903;27;20327;-62
2023/03/26 05:11:24;;;;;;;;;;;10.50;99.90;;;;;;5139222;27;20407;-62
2023/03/26 05:13:50;;;;;;;;;;;10.50;99.90;;;;;;5139179;28;19908;-62
2023/03/26 05:16:16;;;;;;;;;;;10.60;99.90;;;;;;5139333;28;19915;-61
2023/03/26 05:18:41;;;;;;;;;;;10.50;99.90;;;;;;5138852;28;19908;-62
2023/03/26 05:21:07;;;;;;;;;;;10.60;99.90;;;;;;5139362;28;20010;-61
2023/03/26 05:23:33;;;;;;;;;;;10.60;99.90;;;;;;5139017;28;19907;-62
2023/03/26 05:25:58;;;;;;;;;;;10.50;99.90;;;;;;5138442;28;19919;-61
2023/03/26 05:28:25;;;;;;;;;;;10.50;99.90;;;;;;5139035;28;19976;-62
2023/03/26 05:30:51;;;;;;;;;;;10.50;99.90;;;;;;5138594;28;19978;-61
2023/03/26 05:33:18;;;;;;;;;;;10.50;99.90;;;;;;5138992;28;19908;-61
2023/03/26 05:35:43;;;;;;;;;;;10.50;99.90;;;;;;5138712;28;19907;-62
2023/03/26 05:38:09;;;;;;;;;;;10.40;99.90;;;;;;5138688;28;20422;-62
2023/03/26 05:40:35;;;;;;;;;;;10.40;99.90;;;;;;5138732;28;19995;-61
2023/03/26 05:43:01;;;;;;;;;;;10.40;99.90;;;;;;5138847;28;19994;-62
2023/03/26 05:45:26;;;;;;;;;;;10.40;99.90;;;;;;5139157;27;19919;-62
2023/03/26 05:47:53;;;;;;;;;;;10.40;99.90;;;;;;5142526;27;20442;-62
2023/03/26 05:50:19;;;;;;;;;;;10.60;99.90;;;;;;5142943;27;19907;-62
2023/03/26 05:52:45;;;;;;;;;;;10.40;99.90;;;;;;5142539;27;19915;-61
2023/03/26 05:55:12;;;;;;;;;;;10.40;99.90;;;;;;5142443;27;19914;-62
2023/03/26 05:57:38;;;;;;;;;;;10.40;99.90;;;;;;5142267;27;19912;-61
2023/03/26 06:00:06;;;;;;;;;;;10.50;99.90;;;;;;5142700;27;19952;-61
2023/03/26 06:02:32;;;;;;;;;;;10.40;99.90;;;;;;5142202;27;19907;-62
2023/03/26 06:04:58;;;;;;;;;;;10.50;99.90;;;;;;5142504;27;19919;-61
2023/03/26 06:07:23;;;;;;;;;;;10.50;99.90;;;;;;5142619;27;19915;-62
2023/03/26 06:09:49;;;;;;;;;;;10.50;99.90;;;;;;5141656;27;19908;-61
2023/03/26 06:12:15;;;;;;;;;;;10.50;99.90;;;;;;5141499;27;19907;-62
2023/03/26 06:14:45;;;;;;;;;;;10.50;99.90;;;;;;5141906;27;19937;-62
2023/03/26 06:17:11;;;;;;;;;;;10.60;99.90;;;;;;5141604;27;19919;-62
2023/03/26 06:19:37;;;;;;;;;;;10.60;99.90;;;;;;5142143;27;19908;-62
2023/03/26 06:22:04;;;;;;;;;;;10.60;99.90;;;;;;5141767;27;19907;-62
2023/03/26 06:24:29;;;;;;;;;;;10.60;99.90;;;;;;5141536;27;20306;-62
2023/03/26 06:26:55;;;;;;;;;;;10.60;99.90;;;;;;5141796;27;19919;-62
2023/03/26 06:29:21;;;;;;;;;;;10.60;99.90;;;;;;5141793;27;19914;-62
2023/03/26 06:31:46;;;;;;;;;;;10.60;99.90;;;;;;5141864;27;20343;-62
2023/03/26 06:34:12;;;;;;;;;;;10.60;99.90;;;;;;5141650;27;20006;-61
2023/03/26 06:36:37;;;;;;;;;;;10.60;99.90;;;;;;5141921;27;20296;-62
2023/03/26 06:39:03;;;;;;;;;;;10.60;99.90;;;;;;5141581;27;20426;-62
2023/03/26 06:41:29;;;;;;;;;;;10.60;99.90;;;;;;5141886;27;19953;-62
2023/03/26 06:43:55;;;;;;;;;;;10.70;99.90;;;;;;5141471;27;19913;-62
2023/03/26 06:46:22;;;;;;;;;;;10.70;99.90;;;;;;5141537;27;19957;-61
2023/03/26 06:48:48;;;;;;;;;;;10.70;99.90;;;;;;5141322;27;19907;-62
2023/03/26 06:51:13;;;;;;;;;;;10.70;99.90;;;;;;5141458;27;19952;-62
2023/03/26 06:53:39;;;;;;;;;;;10.80;99.90;;;;;;5141259;27;19914;-62
2023/03/26 06:56:05;;;;;;;;;;;10.70;99.90;;;;;;5141643;27;19911;-62
2023/03/26 06:58:31;;;;;;;;;;;10.80;99.90;;;;;;5141257;27;19914;-62
2023/03/26 07:00:56;;;;;;;;;;;10.90;99.90;;;;;;5141192;27;20427;-62
2023/03/26 07:03:22;;;;;;;;;;;10.70;99.90;;;;;;5141040;27;19907;-62
2023/03/26 07:05:48;;;;;;;;;;;10.80;99.90;;;;;;5141101;27;19916;-62
2023/03/26 07:08:14;;;;;;;;;;;10.90;99.90;;;;;;5141258;27;19907;-62
2023/03/26 07:10:39;;;;;;;;;;;10.80;99.90;;;;;;5141227;27;19907;-62
2023/03/26 07:13:05;;;;;;;;;;;10.90;99.90;;;;;;5141082;27;19914;-62
2023/03/26 07:15:31;;;;;;;;;;;10.80;99.90;;;;;;5140952;27;19915;-62
2023/03/26 07:17:57;;;;;;;;;;;10.60;99.90;;;;;;5140963;27;20063;-62
2023/03/26 07:20:22;;;;;;;;;;;10.50;99.90;;;;;;5140773;27;19914;-62
2023/03/26 07:22:48;;;;;;;;;;;10.40;99.90;;;;;;5140778;27;19915;-62
2023/03/26 07:25:14;;;;;;;;;;;10.30;99.90;;;;;;5140318;27;19953;-62
2023/03/26 07:27:45;;;;;;;;;;;10.30;99.90;;;;;;5140379;27;19951;-62
2023/03/26 07:30:13;;;;;;;;;;;10.20;99.90;;;;;;5140759;27;19907;-62
2023/03/26 07:32:43;;;;;;;;;;;10.20;99.90;;;;;;5140062;27;19908;-61
2023/03/26 07:35:24;;;;;;;;;;;10.10;99.90;;;;;;5140497;27;19907;-61
2023/03/26 07:37:59;;;;;;;;;;;10.00;99.90;;;;;;5140560;27;19911;-61
2023/03/26 07:40:40;;;;;;;;;;;9.90;99.90;;;;;;5140267;27;19907;-62
2023/03/26 07:43:14;;;;;;;;;;;10.00;99.90;;;;;;5140271;27;19972;-62
2023/03/26 07:45:41;;;;;;;;;;;9.80;99.90;;;;;;5140321;27;19914;-62
2023/03/26 07:48:16;;;;;;;;;;;9.80;99.90;;;;;;5140378;27;19933;-62
2023/03/26 07:50:42;;;;;;;;;;;9.80;99.90;;;;;;5140358;27;20002;-62
2023/03/26 07:53:08;;;;;;;;;;;9.80;99.90;;;;;;5140211;27;19912;-62
2023/03/26 07:55:37;;;;;;;;;;;9.80;99.90;;;;;;5140248;27;19914;-62
2023/03/26 07:58:02;;;;;;;;;;;9.80;99.90;;;;;;5139920;27;20359;-62
2023/03/26 08:00:44;;;;;;;;;;;9.80;99.90;;;;;;5139943;27;19931;-62
2023/03/26 08:03:16;;;;;;;;;;;9.80;99.90;;;;;;5139836;27;19991;-62
2023/03/26 08:05:41;;;;;;;;;;;9.80;99.90;;;;;;5140081;27;19965;-62
2023/03/26 08:08:10;;;;;;;;;;;9.80;99.90;;;;;;5139674;27;19911;-62
2023/03/26 08:10:54;;;;;;;;;;;9.70;99.90;;;;;;5139528;27;20255;-62
2023/03/26 08:13:29;;;;;;;;;;;9.80;99.90;;;;;;5139695;27;20023;-62
2023/03/26 08:16:04;;;;;;;;;;;9.80;99.90;;;;;;5139638;27;19953;-62
2023/03/26 08:18:40;;;;;;;;;;;9.80;99.90;;;;;;5139533;27;19907;-62
2023/03/26 08:21:08;;;;;;;;;;;9.80;99.90;;;;;;5139766;27;19907;-62
2023/03/26 08:23:34;;;;;;;;;;;9.80;99.90;;;;;;5139671;27;19994;-62
2023/03/26 08:26:14;;;;;;;;;;;9.90;99.90;;;;;;5139282;27;19955;-62
2023/03/26 08:28:40;;;;;;;;;;;10.00;99.90;;;;;;5139899;27;19914;-62
2023/03/26 08:31:08;;;;;;;;;;;10.10;99.90;;;;;;5139149;27;20379;-62
2023/03/26 08:33:35;;;;;;;;;;;10.20;99.90;;;;;;5138881;27;20294;-62
2023/03/26 08:36:00;;;;;;;;;;;10.30;99.90;;;;;;5138959;27;19998;-62
2023/03/26 08:38:26;;;;;;;;;;;10.40;99.90;;;;;;5139565;27;19988;-62
2023/03/26 08:40:58;;;;;;;;;;;10.50;99.90;;;;;;5139117;27;20005;-62
2023/03/26 08:43:42;;;;;;;;;;;10.60;99.90;;;;;;5139446;27;20358;-62
2023/03/26 08:46:14;;;;;;;;;;;10.60;99.90;;;;;;5138984;27;20274;-62
2023/03/26 08:48:55;;;;;;;;;;;10.80;99.90;;;;;;5138736;27;20415;-62
2023/03/26 08:51:20;;;;;;;;;;;10.80;99.90;;;;;;5139303;27;19907;-62
2023/03/26 08:53:46;;;;;;;;;;;10.80;99.90;;;;;;5139202;27;20490;-62
2023/03/26 08:56:30;;;;;;;;;;;10.70;99.90;;;;;;5139119;27;20342;-62
2023/03/26 08:58:58;;;;;;;;;;;10.70;99.90;;;;;;5139189;27;19956;-62
2023/03/26 09:01:30;;;;;;;;;;;10.50;99.90;;;;;;5138967;27;20298;-62
2023/03/26 09:04:11;;;;;;;;;;;10.50;99.90;;;;;;5139069;27;19908;-62
2023/03/26 09:06:55;;;;;;;;;;;10.40;99.90;;;;;;5139064;27;20346;-62
2023/03/26 09:09:36;;;;;;;;;;;10.40;99.90;;;;;;5139025;27;19907;-62
2023/03/26 09:12:07;;;;;;;;;;;10.30;99.90;;;;;;5138796;27;19907;-62
2023/03/26 09:14:42;;;;;;;;;;;10.20;99.90;;;;;;5138663;27;19908;-62
2023/03/26 09:17:11;;;;;;;;;;;10.30;99.90;;;;;;5138962;28;19911;-62
2023/03/26 09:19:46;;;;;;;;;;;10.40;99.90;;;;;;5138830;28;19919;-62
2023/03/26 09:22:21;;;;;;;;;;;10.50;99.90;;;;;;5142090;27;20289;-62
2023/03/26 09:25:02;;;;;;;;;;;10.50;99.90;;;;;;5143078;27;19954;-62
2023/03/26 09:27:35;;;;;;;;;;;10.50;99.90;;;;;;5124195;27;19919;-62
2023/03/26 09:30:14;;;;;;;;;;;10.60;99.90;;;;;;5143193;27;19952;-62
2023/03/26 09:32:58;;;;;;;;;;;10.70;99.90;;;;;;5143264;27;19915;-62
2023/03/26 09:35:27;;;;;;;;;;;10.80;99.90;;;;;;5142931;27;19907;-62
2023/03/26 09:37:59;;;;;;;;;;;11.00;99.90;;;;;;5142842;27;19912;-62
2023/03/26 09:40:43;;;;;;;;;;;11.10;99.90;;;;;;5142757;27;19907;-62
2023/03/26 09:43:12;;;;;;;;;;;11.30;99.90;;;;;;5142694;27;19913;-62
2023/03/26 09:45:46;;;;;;;;;;;11.50;99.90;;;;;;5142820;27;19908;-62
2023/03/26 09:48:30;;;;;;;;;;;11.60;99.90;;;;;;5142584;27;19964;-62
2023/03/26 09:51:02;;;;;;;;;;;11.70;99.90;;;;;;5142528;27;19912;-62
2023/03/26 09:53:28;;;;;;;;;;;11.80;99.90;;;;;;5142790;27;19907;-62
2023/03/26 09:55:56;;;;;;;;;;;12.00;99.90;;;;;;5142565;27;20323;-62
2023/03/26 09:58:41;;;;;;;;;;;12.10;99.90;;;;;;5142616;27;20645;-62
2023/03/26 10:01:16;;;;;;;;;;;12.30;99.90;;;;;;5142978;27;19912;-62
2023/03/26 10:04:09;;;;;;;;;;;12.50;99.90;;;;;;5142115;27;20322;-62
2023/03/26 10:06:47;;;;;;;;;;;12.60;99.90;;;;;;5142273;27;19914;-62
2023/03/26 10:09:19;;;;;;;;;;;12.80;99.90;;;;;;5142469;27;19914;-62
2023/03/26 10:11:54;;;;;;;;;;;13.00;99.90;;;;;;5142169;27;19916;-62
2023/03/26 10:14:31;;;;;;;;;;;13.10;99.90;;;;;;5142164;27;19994;-62
2023/03/26 10:17:06;;;;;;;;;;;13.40;99.90;;;;;;5142016;27;19912;-62
2023/03/26 10:19:42;;;;;;;;;;;13.50;99.90;;;;;;5142037;27;19912;-62
2023/03/26 10:22:09;;;;;;;;;;;13.60;99.90;;;;;;5142064;27;19911;-62
2023/03/26 10:24:44;;;;;;;;;;;13.80;99.90;;;;;;5142464;27;20028;-62
2023/03/26 10:27:10;;;;;;;;;;;13.90;99.90;;;;;;5141631;27;20386;-62
2023/03/26 10:29:35;;;;;;;;;;;14.00;99.90;;;;;;5142025;27;19950;-62
2023/03/26 10:32:04;;;;;;;;;;;14.20;99.90;;;;;;5141388;27;19908;-62
2023/03/26 10:34:39;;;;;;;;;;;14.30;99.90;;;;;;5141938;27;19912;-62
2023/03/26 10:37:10;;;;;;;;;;;14.40;99.90;;;;;;5141601;27;20330;-62
2023/03/26 10:39:48;;;;;;;;;;;14.50;99.90;;;;;;5141800;27;19908;-62
2023/03/26 10:42:32;;;;;;;;;;;14.60;99.90;;;;;;5141539;27;20005;-62
2023/03/26 10:45:16;;;;;;;;;;;14.70;99.90;;;;;;5141774;27;19926;-62
2023/03/26 10:47:42;;;;;;;;;;;14.80;99.90;;;;;;5141456;27;19930;-62
2023/03/26 10:50:43;;;;;;;;;;;14.90;99.90;;;;;;5141763;27;19907;-62
2023/03/26 10:53:17;;;;;;;;;;;15.00;99.90;;;;;;5058091;28;19909;-62
2023/03/26 10:55:50;;;;;;;;;;;15.10;99.90;;;;;;5128804;27;19913;-62
2023/03/26 10:58:20;;;;;;;;;;;15.20;99.90;;;;;;5141511;27;19918;-62
2023/03/26 11:00:52;;;;;;;;;;;15.20;99.90;;;;;;5141204;27;19911;-62
2023/03/26 11:03:26;;;;;;;;;;;15.10;99.90;;;;;;5141692;27;19907;-62
2023/03/26 11:06:28;;;;;;;;;;;15.10;99.90;;;;;;5141076;27;19912;-62
2023/03/26 11:08:53;;;;;;;;;;;15.10;99.90;;;;;;5057715;28;19917;-61
2023/03/26 11:11:28;;;;;;;;;;;15.10;99.90;;;;;;5123524;27;19908;-62
2023/03/26 11:13:54;;;;;;;;;;;15.10;99.90;;;;;;5141156;27;19908;-62
2023/03/26 11:16:38;;;;;;;;;;;15.10;99.90;;;;;;5140928;27;19933;-62
2023/03/26 11:19:09;;;;;;;;;;;15.20;99.90;;;;;;5141106;27;19908;-62
2023/03/26 11:21:35;;;;;;;;;;;15.20;99.90;;;;;;5141106;27;19911;-62
2023/03/26 11:24:19;;;;;;;;;;;15.20;99.90;;;;;;5140996;27;19915;-62
2023/03/26 11:26:49;;;;;;;;;;;15.10;99.90;;;;;;5140377;27;19923;-61
2023/03/26 11:29:21;;;;;;;;;;;15.00;99.90;;;;;;5140666;27;19908;-62
2023/03/26 11:31:49;;;;;;;;;;;14.90;99.90;;;;;;5140676;27;20007;-62
2023/03/26 11:34:17;;;;;;;;;;;15.00;99.90;;;;;;5140804;27;19913;-62
2023/03/26 11:36:45;;;;;;;;;;;15.00;99.90;;;;;;5140569;27;19918;-62
2023/03/26 11:39:13;;;;;;;;;;;15.10;99.90;;;;;;5122077;27;19915;-62
2023/03/26 11:41:39;;;;;;;;;;;15.30;99.90;;;;;;5121897;27;19907;-62
2023/03/26 11:44:12;;;;;;;;;;;15.40;99.90;;;;;;5139367;27;19907;-62
2023/03/26 11:46:38;;;;;;;;;;;15.60;99.90;;;;;;5140241;27;19914;-62
2023/03/26 11:49:10;;;;;;;;;;;15.70;99.90;;;;;;5140223;27;19915;-62
2023/03/26 11:51:36;;;;;;;;;;;15.80;99.90;;;;;;5140139;27;19914;-62
2023/03/26 11:54:03;;;;;;;;;;;16.00;99.90;;;;;;5140500;27;20263;-62
2023/03/26 11:56:33;;;;;;;;;;;16.20;99.90;;;;;;5139792;27;20333;-62
2023/03/26 11:58:59;;;;;;;;;;;16.40;99.90;;;;;;5139992;27;20438;-62
2023/03/26 12:01:39;;;;;;;;;;;16.50;99.90;;;;;;5139855;27;19974;-62
2023/03/26 12:04:12;;;;;;;;;;;16.50;99.90;;;;;;5140078;27;19980;-62
2023/03/26 12:06:38;;;;;;;;;;;16.60;99.90;;;;;;5139759;27;20274;-62
2023/03/26 12:09:03;;;;;;;;;;;16.70;99.90;;;;;;5140078;27;20356;-62
2023/03/26 12:11:33;;;;;;;;;;;16.60;99.90;;;;;;5139673;27;20012;-62
2023/03/26 12:14:03;;;;;;;;;;;16.70;99.90;;;;;;5139645;27;20373;-62
2023/03/26 12:16:28;;;;;;;;;;;16.90;99.90;;;;;;5139622;27;19998;-62
2023/03/26 12:19:04;;;;;;;;;;;16.90;99.90;;;;;;5139744;27;19947;-62
2023/03/26 12:21:41;;;;;;;;;;;17.00;99.90;;;;;;5139729;27;19907;-62
2023/03/26 12:24:23;;;;;;;;;;;17.00;99.90;;;;;;5139915;27;19911;-62
2023/03/26 12:26:55;;;;;;;;;;;16.90;99.90;;;;;;5139299;27;20009;-62
2023/03/26 12:29:22;;;;;;;;;;;16.90;99.90;;;;;;5139792;27;20337;-62
2023/03/26 12:32:02;;;;;;;;;;;17.00;99.90;;;;;;5139600;27;19919;-62
2023/03/26 12:34:30;;;;;;;;;;;16.90;99.90;;;;;;5139864;27;20326;-62
2023/03/26 12:36:58;;;;;;;;;;;17.00;99.90;;;;;;5139188;27;19919;-61
2023/03/26 12:39:28;;;;;;;;;;;17.10;99.90;;;;;;5139586;27;19914;-61
2023/03/26 12:41:55;;;;;;;;;;;17.20;99.90;;;;;;5139294;27;19912;-61
2023/03/26 12:44:24;;;;;;;;;;;17.30;99.90;;;;;;5140209;27;19907;-61
2023/03/26 12:46:52;;;;;;;;;;;17.40;99.90;;;;;;5139015;27;20358;-61
2023/03/26 12:49:19;;;;;;;;;;;17.50;99.90;;;;;;5139864;27;19907;-61
2023/03/26 12:51:48;;;;;;;;;;;17.60;99.90;;;;;;5139003;27;20375;-61
2023/03/26 12:54:32;;;;;;;;;;;17.80;99.90;;;;;;5139163;27;19912;-61
2023/03/26 12:57:06;;;;;;;;;;;17.70;99.90;;;;;;5139207;27;19911;-61
2023/03/26 12:59:31;;;;;;;;;;;17.90;99.90;;;;;;5139021;27;20374;-61
2023/03/26 13:01:57;;;;;;;;;;;18.10;99.90;;;;;;5139112;27;20083;-62
2023/03/26 13:04:23;;;;;;;;;;;18.10;99.90;;;;;;5139290;27;19915;-61
2023/03/26 13:06:54;;;;;;;;;;;18.20;99.90;;;;;;5139245;27;19907;-62
2023/03/26 13:09:26;;;;;;;;;;;18.40;99.90;;;;;;5138901;27;20044;-62
2023/03/26 13:11:52;;;;;;;;;;;18.40;99.90;;;;;;5138745;27;19908;-62
2023/03/26 13:14:21;;;;;;;;;;;18.50;99.90;;;;;;5138872;27;19908;-61
2023/03/26 13:16:46;;;;;;;;;;;18.70;99.90;;;;;;5139277;28;19915;-62
2023/03/26 13:19:14;;;;;;;;;;;18.80;99.90;;;;;;5138896;28;19923;-62
2023/03/26 13:21:52;;;;;;;;;;;18.90;99.90;;;;;;5139042;28;19912;-62
2023/03/26 13:24:18;;;;;;;;;;;19.00;99.90;;;;;;5139236;28;19940;-62
2023/03/26 13:26:50;;;;;;;;;;;19.10;99.90;;;;;;5138791;28;20411;-62
2023/03/26 13:29:29;;;;;;;;;;;19.10;99.90;;;;;;5138823;28;19914;-61
2023/03/26 13:32:07;;;;;;;;;;;19.10;99.90;;;;;;5138970;28;19908;-62
2023/03/26 13:34:36;;;;;;;;;;;19.10;99.90;;;;;;5139014;28;20055;-61
2023/03/26 13:37:17;;;;;;;;;;;19.00;99.90;;;;;;5138828;28;19995;-61
2023/03/26 13:39:44;;;;;;;;;;;19.00;99.90;;;;;;5138606;28;20092;-61
2023/03/26 13:42:32;;;;;;;;;;;19.10;99.90;;;;;;5138682;28;19908;-61
2023/03/26 13:45:07;;;;;;;;;;;19.10;99.90;;;;;;5138458;28;20301;-61
2023/03/26 13:47:35;;;;;;;;;;;19.20;99.90;;;;;;5138736;28;19908;-61
2023/03/26 13:50:05;;;;;;;;;;;19.10;99.90;;;;;;5138505;28;20289;-62
2023/03/26 13:52:36;;;;;;;;;;;19.00;99.90;;;;;;5138317;28;19914;-61
2023/03/26 13:55:11;;;;;;;;;;;18.90;99.90;;;;;;5138536;28;19938;-61
2023/03/26 13:57:41;;;;;;;;;;;18.90;99.90;;;;;;5138585;28;19915;-61
2023/03/26 14:00:15;;;;;;;;;;;19.10;99.90;;;;;;5138634;28;19911;-61
2023/03/26 14:02:52;;;;;;;;;;;19.10;99.90;;;;;;5138522;28;19907;-61
2023/03/26 14:05:43;;;;;;;;;;;19.20;99.90;;;;;;5138216;28;20278;-61
2023/03/26 14:08:21;;;;;;;;;;;19.30;99.90;;;;;;5136794;27;19908;-61
2023/03/26 14:10:54;;;;;;;;;;;19.40;99.90;;;;;;5142160;27;19912;-61
2023/03/26 14:13:26;;;;;;;;;;;19.50;99.90;;;;;;5142264;27;19914;-61
2023/03/26 14:15:54;;;;;;;;;;;19.40;99.90;;;;;;5142384;27;19908;-61
2023/03/26 14:18:38;;;;;;;;;;;19.50;99.90;;;;;;5142039;27;19911;-61
2023/03/26 14:21:07;;;;;;;;;;;19.50;99.90;;;;;;5142249;27;19952;-61
2023/03/26 14:23:57;;;;;;;;;;;19.60;99.90;;;;;;5141802;27;19914;-61
2023/03/26 14:26:26;;;;;;;;;;;19.70;99.90;;;;;;5142031;27;19944;-61
2023/03/26 14:28:51;;;;;;;;;;;19.70;99.90;;;;;;5142083;27;20284;-61
2023/03/26 14:31:22;;;;;;;;;;;19.80;99.90;;;;;;5142093;27;19911;-61
2023/03/26 14:33:59;;;;;;;;;;;19.80;99.90;;;;;;5141756;27;19968;-61